• °C
  • Pobieranie danych...
wx



METAR EPBY 010300Z 01004KT 9999 FEW005 13/12 Q1009=

METAR EPGD 010300Z 03005KT 350V050 9999 BKN011 14/12 Q1010 =

METAR EPKK 010300Z VRB01KT 9999 FEW006 BKN009 12/11 Q1006 =

METAR EPKT 010300Z 32003KT 5000 -DZ BR SCT002 BKN003 11/11 Q1006 =

METAR EPLB 010300Z 03006KT 360V060 2700 DZ BR OVC003 12/12 Q1005 =

METAR EPLL 010300Z 01006KT 9999 BKN007 13/12 Q1007 =

METAR EPMO 010300Z 03007KT 9999 BKN032 12/12 Q1008 =

METAR EPPO 010300Z 35004KT 9999 BKN007 12/11 Q1009 =

METAR EPRA 010300Z NIL=

METAR EPRZ 010300Z 31005KT 6000 OVC002 12/12 Q1004 =

METAR EPSC 010300Z 02004KT 9999 MIFG NSC 10/10 Q1011 =

METAR EPSY 010300Z 03005KT 8000 NSC 11/11 Q1009=

METAR EPWA 010300Z 04007KT 010V070 9999 FEW008 BKN028 13/12 Q1007
TEMPO BKN008=

METAR EPWR 010300Z 32005KT 5000 -RA BR BKN005 12/11 Q1008 =

METAR EPZG 010300Z 34003KT 310V030 9000 SCT022 11/10 Q1010 =



IMGW-PIB Sites